Terminal Aerodrome Forecast
Issued by NWS Pendleton, OR

Home | Current Version | Previous Version | Text Only | Print | Product List | Glossary On
Versions: 1 2 3 4 5 6 7 8 9 10 11 12 13 14 15
000
FTUS46 KPDT 061120
TAFPDT
TAF
KPDT 061120Z 0612/0712 32006KT 4SM -SN BR SCT006 OVC015
      TEMPO 0612/0616 2SM -SN BR OVC005
     FM062100 30011KT 4SM -SN BR OVC020
     FM070000 30008KT P6SM OVC007=

USA.gov is the U.S. government's official web portal to all federal, state and local government web resources and services.